sensor_id;sensor_type;location;lat;lon;timestamp;temperature;humidity
1704;DHT22;849;48.780;9.216;2024-01-11T00:01:24;-1.50;99.90
1704;DHT22;849;48.780;9.216;2024-01-11T00:04:09;-1.60;99.90
1704;DHT22;849;48.780;9.216;2024-01-11T00:06:53;-1.50;99.90
1704;DHT22;849;48.780;9.216;2024-01-11T00:09:43;-1.60;99.90
1704;DHT22;849;48.780;9.216;2024-01-11T00:12:27;-1.60;99.90
1704;DHT22;849;48.780;9.216;2024-01-11T00:15:12;-1.60;99.90
1704;DHT22;849;48.780;9.216;2024-01-11T00:17:56;-1.60;99.90
1704;DHT22;849;48.780;9.216;2024-01-11T00:20:40;-1.60;99.90
1704;DHT22;849;48.780;9.216;2024-01-11T00:23:24;-1.60;99.90
1704;DHT22;849;48.780;9.216;2024-01-11T00:26:11;-1.60;99.90
1704;DHT22;849;48.780;9.216;2024-01-11T00:28:55;-1.60;99.90
1704;DHT22;849;48.780;9.216;2024-01-11T00:31:39;-1.30;99.90
1704;DHT22;849;48.780;9.216;2024-01-11T00:34:24;-1.70;99.90
1704;DHT22;849;48.780;9.216;2024-01-11T00:37:08;-1.70;99.90
1704;DHT22;849;48.780;9.216;2024-01-11T00:39:52;-1.60;99.90
1704;DHT22;849;48.780;9.216;2024-01-11T00:42:36;-1.20;99.90
1704;DHT22;849;48.780;9.216;2024-01-11T00:45:21;-1.70;99.90
1704;DHT22;849;48.780;9.216;2024-01-11T00:48:05;-1.70;99.90
1704;DHT22;849;48.780;9.216;2024-01-11T00:50:49;-1.70;99.90
1704;DHT22;849;48.780;9.216;2024-01-11T00:53:34;-1.60;99.90
1704;DHT22;849;48.780;9.216;2024-01-11T00:56:18;-1.70;99.90
1704;DHT22;849;48.780;9.216;2024-01-11T00:59:02;-1.70;99.90
1704;DHT22;849;48.780;9.216;2024-01-11T01:01:50;-1.70;99.90
1704;DHT22;849;48.780;9.216;2024-01-11T01:04:37;-1.70;99.90
1704;DHT22;849;48.780;9.216;2024-01-11T01:07:21;-1.70;99.90
1704;DHT22;849;48.780;9.216;2024-01-11T01:10:06;-1.20;99.90
1704;DHT22;849;48.780;9.216;2024-01-11T01:12:49;-1.70;99.90
1704;DHT22;849;48.780;9.216;2024-01-11T01:15:34;-1.70;99.90
1704;DHT22;849;48.780;9.216;2024-01-11T01:18:18;-1.80;99.90
1704;DHT22;849;48.780;9.216;2024-01-11T01:21:02;-1.80;99.90
1704;DHT22;849;48.780;9.216;2024-01-11T01:23:46;-1.80;99.90
1704;DHT22;849;48.780;9.216;2024-01-11T01:26:30;-1.70;99.90
1704;DHT22;849;48.780;9.216;2024-01-11T01:29:14;-1.80;99.90
1704;DHT22;849;48.780;9.216;2024-01-11T01:31:58;-1.90;99.90
1704;DHT22;849;48.780;9.216;2024-01-11T01:34:43;-1.50;99.90
1704;DHT22;849;48.780;9.216;2024-01-11T01:37:27;-1.90;99.90
1704;DHT22;849;48.780;9.216;2024-01-11T01:40:11;-1.80;99.90
1704;DHT22;849;48.780;9.216;2024-01-11T01:42:59;-1.90;99.90
1704;DHT22;849;48.780;9.216;2024-01-11T01:45:46;-1.90;99.90
1704;DHT22;849;48.780;9.216;2024-01-11T01:48:30;-1.90;99.90
1704;DHT22;849;48.780;9.216;2024-01-11T01:51:15;-1.90;99.90
1704;DHT22;849;48.780;9.216;2024-01-11T01:53:59;-1.50;99.90
1704;DHT22;849;48.780;9.216;2024-01-11T01:56:43;-1.90;99.90
1704;DHT22;849;48.780;9.216;2024-01-11T01:59:27;-1.90;99.90
1704;DHT22;849;48.780;9.216;2024-01-11T02:02:13;-1.90;99.90
1704;DHT22;849;48.780;9.216;2024-01-11T02:04:57;-1.90;99.90
1704;DHT22;849;48.780;9.216;2024-01-11T02:07:41;-1.90;99.90
1704;DHT22;849;48.780;9.216;2024-01-11T02:10:26;-1.90;99.90
1704;DHT22;849;48.780;9.216;2024-01-11T02:13:11;-1.90;99.90
1704;DHT22;849;48.780;9.216;2024-01-11T02:15:55;-2.00;99.90
1704;DHT22;849;48.780;9.216;2024-01-11T02:18:39;-2.00;99.90
1704;DHT22;849;48.780;9.216;2024-01-11T02:21:23;-2.00;99.90
1704;DHT22;849;48.780;9.216;2024-01-11T02:24:08;-2.00;99.90
1704;DHT22;849;48.780;9.216;2024-01-11T02:27:02;-2.00;99.90
1704;DHT22;849;48.780;9.216;2024-01-11T02:29:46;-2.00;99.90
1704;DHT22;849;48.780;9.216;2024-01-11T02:32:30;-2.00;99.90
1704;DHT22;849;48.780;9.216;2024-01-11T02:35:15;-1.60;99.90
1704;DHT22;849;48.780;9.216;2024-01-11T02:37:59;-1.80;99.90
1704;DHT22;849;48.780;9.216;2024-01-11T02:40:44;-2.00;99.90
1704;DHT22;849;48.780;9.216;2024-01-11T02:43:29;-2.00;99.90
1704;DHT22;849;48.780;9.216;2024-01-11T02:46:14;-2.00;99.90
1704;DHT22;849;48.780;9.216;2024-01-11T02:48:58;-2.10;99.90
1704;DHT22;849;48.780;9.216;2024-01-11T02:51:43;-1.70;99.90
1704;DHT22;849;48.780;9.216;2024-01-11T02:54:27;-2.10;99.90
1704;DHT22;849;48.780;9.216;2024-01-11T02:57:11;-2.10;99.90
1704;DHT22;849;48.780;9.216;2024-01-11T02:59:55;-2.10;99.90
1704;DHT22;849;48.780;9.216;2024-01-11T03:02:39;-1.70;99.90
1704;DHT22;849;48.780;9.216;2024-01-11T03:05:23;-2.10;99.90
1704;DHT22;849;48.780;9.216;2024-01-11T03:08:08;-2.10;99.90
1704;DHT22;849;48.780;9.216;2024-01-11T03:10:52;-2.00;99.90
1704;DHT22;849;48.780;9.216;2024-01-11T03:13:36;-2.00;99.90
1704;DHT22;849;48.780;9.216;2024-01-11T03:16:20;-2.20;99.90
1704;DHT22;849;48.780;9.216;2024-01-11T03:19:05;-2.20;99.90
1704;DHT22;849;48.780;9.216;2024-01-11T03:21:49;-2.20;99.90
1704;DHT22;849;48.780;9.216;2024-01-11T03:24:37;-2.20;99.90
1704;DHT22;849;48.780;9.216;2024-01-11T03:27:21;-2.20;99.90
1704;DHT22;849;48.780;9.216;2024-01-11T03:30:05;-2.20;99.90
1704;DHT22;849;48.780;9.216;2024-01-11T03:32:50;-2.20;99.90
1704;DHT22;849;48.780;9.216;2024-01-11T03:35:34;-2.20;99.90
1704;DHT22;849;48.780;9.216;2024-01-11T03:38:18;-2.20;99.90
1704;DHT22;849;48.780;9.216;2024-01-11T03:41:06;-2.20;99.90
1704;DHT22;849;48.780;9.216;2024-01-11T03:43:51;-2.20;99.90
1704;DHT22;849;48.780;9.216;2024-01-11T03:46:36;-2.30;99.90
1704;DHT22;849;48.780;9.216;2024-01-11T03:49:20;-2.20;99.90
1704;DHT22;849;48.780;9.216;2024-01-11T03:52:05;-2.30;99.90
1704;DHT22;849;48.780;9.216;2024-01-11T03:54:50;-2.30;99.90
1704;DHT22;849;48.780;9.216;2024-01-11T03:57:34;-2.30;99.90
1704;DHT22;849;48.780;9.216;2024-01-11T04:00:19;-2.30;99.90
1704;DHT22;849;48.780;9.216;2024-01-11T04:03:03;-2.30;99.90
1704;DHT22;849;48.780;9.216;2024-01-11T04:05:47;-2.30;99.90
1704;DHT22;849;48.780;9.216;2024-01-11T04:08:32;-2.30;99.90
1704;DHT22;849;48.780;9.216;2024-01-11T04:11:17;-2.30;99.90
1704;DHT22;849;48.780;9.216;2024-01-11T04:14:01;-2.50;99.90
1704;DHT22;849;48.780;9.216;2024-01-11T04:16:45;-2.40;99.90
1704;DHT22;849;48.780;9.216;2024-01-11T04:19:29;-2.40;99.90
1704;DHT22;849;48.780;9.216;2024-01-11T04:22:14;-2.40;99.90
1704;DHT22;849;48.780;9.216;2024-01-11T04:24:58;-2.40;99.90
1704;DHT22;849;48.780;9.216;2024-01-11T04:27:42;-1.90;99.90
1704;DHT22;849;48.780;9.216;2024-01-11T04:30:26;-2.10;99.90
1704;DHT22;849;48.780;9.216;2024-01-11T04:33:10;-1.90;99.90
1704;DHT22;849;48.780;9.216;2024-01-11T04:35:55;-2.40;99.90
1704;DHT22;849;48.780;9.216;2024-01-11T04:38:39;-2.40;99.90
1704;DHT22;849;48.780;9.216;2024-01-11T04:41:23;-2.40;99.90
1704;DHT22;849;48.780;9.216;2024-01-11T04:44:07;-2.40;99.90
1704;DHT22;849;48.780;9.216;2024-01-11T04:46:52;-2.40;99.90
1704;DHT22;849;48.780;9.216;2024-01-11T04:49:37;-2.40;99.90
1704;DHT22;849;48.780;9.216;2024-01-11T04:52:21;-2.40;99.90
1704;DHT22;849;48.780;9.216;2024-01-11T04:55:05;-2.40;99.90
1704;DHT22;849;48.780;9.216;2024-01-11T04:57:49;-1.90;99.90
1704;DHT22;849;48.780;9.216;2024-01-11T05:00:33;-1.90;99.90
1704;DHT22;849;48.780;9.216;2024-01-11T05:03:17;-2.40;99.90
1704;DHT22;849;48.780;9.216;2024-01-11T05:06:01;-2.50;99.90
1704;DHT22;849;48.780;9.216;2024-01-11T05:08:46;-2.50;99.90
1704;DHT22;849;48.780;9.216;2024-01-11T05:11:30;-2.50;99.90
1704;DHT22;849;48.780;9.216;2024-01-11T05:14:15;-2.50;99.90
1704;DHT22;849;48.780;9.216;2024-01-11T05:16:59;-2.50;99.90
1704;DHT22;849;48.780;9.216;2024-01-11T05:19:44;-2.20;99.90
1704;DHT22;849;48.780;9.216;2024-01-11T05:22:29;-2.50;99.90
1704;DHT22;849;48.780;9.216;2024-01-11T05:25:13;-2.30;99.90
1704;DHT22;849;48.780;9.216;2024-01-11T05:27:57;-2.50;99.90
1704;DHT22;849;48.780;9.216;2024-01-11T05:30:42;-2.20;99.90
1704;DHT22;849;48.780;9.216;2024-01-11T05:33:26;-2.60;99.90
1704;DHT22;849;48.780;9.216;2024-01-11T05:36:10;-2.30;99.90
1704;DHT22;849;48.780;9.216;2024-01-11T05:38:55;-2.60;99.90
1704;DHT22;849;48.780;9.216;2024-01-11T05:41:39;-2.60;99.90
1704;DHT22;849;48.780;9.216;2024-01-11T05:44:23;-2.50;99.90
1704;DHT22;849;48.780;9.216;2024-01-11T05:47:07;-2.60;99.90
1704;DHT22;849;48.780;9.216;2024-01-11T05:49:52;-2.10;99.90
1704;DHT22;849;48.780;9.216;2024-01-11T05:52:36;-2.60;99.90
1704;DHT22;849;48.780;9.216;2024-01-11T05:55:20;-2.60;99.90
1704;DHT22;849;48.780;9.216;2024-01-11T05:58:05;-2.60;99.90
1704;DHT22;849;48.780;9.216;2024-01-11T06:00:49;-2.60;99.90
1704;DHT22;849;48.780;9.216;2024-01-11T06:03:33;-2.60;99.90
1704;DHT22;849;48.780;9.216;2024-01-11T06:06:17;-2.60;99.90
1704;DHT22;849;48.780;9.216;2024-01-11T06:09:02;-2.60;99.90
1704;DHT22;849;48.780;9.216;2024-01-11T06:11:48;-2.70;99.90
1704;DHT22;849;48.780;9.216;2024-01-11T06:14:33;-2.70;99.90
1704;DHT22;849;48.780;9.216;2024-01-11T06:17:18;-2.20;99.90
1704;DHT22;849;48.780;9.216;2024-01-11T06:20:02;-2.70;99.90
1704;DHT22;849;48.780;9.216;2024-01-11T06:22:47;-2.70;99.90
1704;DHT22;849;48.780;9.216;2024-01-11T06:25:32;-2.70;99.90
1704;DHT22;849;48.780;9.216;2024-01-11T06:28:16;-2.70;99.90
1704;DHT22;849;48.780;9.216;2024-01-11T06:31:00;-2.20;99.90
1704;DHT22;849;48.780;9.216;2024-01-11T06:33:45;-2.70;99.90
1704;DHT22;849;48.780;9.216;2024-01-11T06:36:29;-2.10;99.90
1704;DHT22;849;48.780;9.216;2024-01-11T06:39:13;-2.00;99.90
1704;DHT22;849;48.780;9.216;2024-01-11T06:41:58;-2.50;99.90
1704;DHT22;849;48.780;9.216;2024-01-11T06:44:43;-2.60;99.90
1704;DHT22;849;48.780;9.216;2024-01-11T06:47:27;-2.60;99.90
1704;DHT22;849;48.780;9.216;2024-01-11T06:50:12;-2.60;99.90
1704;DHT22;849;48.780;9.216;2024-01-11T06:52:56;-2.60;99.90
1704;DHT22;849;48.780;9.216;2024-01-11T06:55:40;-2.60;99.90
1704;DHT22;849;48.780;9.216;2024-01-11T06:58:26;-2.70;99.90
1704;DHT22;849;48.780;9.216;2024-01-11T07:01:10;-2.60;99.90
1704;DHT22;849;48.780;9.216;2024-01-11T07:03:54;-2.70;99.90
1704;DHT22;849;48.780;9.216;2024-01-11T07:06:38;-2.60;99.90
1704;DHT22;849;48.780;9.216;2024-01-11T07:09:23;-2.70;99.90
1704;DHT22;849;48.780;9.216;2024-01-11T07:12:07;-2.70;99.90
1704;DHT22;849;48.780;9.216;2024-01-11T07:14:51;-2.70;99.90
1704;DHT22;849;48.780;9.216;2024-01-11T07:17:35;-2.30;99.90
1704;DHT22;849;48.780;9.216;2024-01-11T07:20:20;-2.70;99.90
1704;DHT22;849;48.780;9.216;2024-01-11T07:23:04;-2.70;99.90
1704;DHT22;849;48.780;9.216;2024-01-11T07:25:48;-2.70;99.90
1704;DHT22;849;48.780;9.216;2024-01-11T07:28:32;-2.70;99.90
1704;DHT22;849;48.780;9.216;2024-01-11T07:31:17;-2.50;99.90
1704;DHT22;849;48.780;9.216;2024-01-11T07:34:01;-2.50;99.90
1704;DHT22;849;48.780;9.216;2024-01-11T07:36:45;-2.70;99.90
1704;DHT22;849;48.780;9.216;2024-01-11T07:39:29;-2.70;99.90
1704;DHT22;849;48.780;9.216;2024-01-11T07:42:14;-2.70;99.90
1704;DHT22;849;48.780;9.216;2024-01-11T07:44:59;-2.40;99.90
1704;DHT22;849;48.780;9.216;2024-01-11T07:47:44;-2.50;99.90
1704;DHT22;849;48.780;9.216;2024-01-11T07:50:28;-2.60;99.90
1704;DHT22;849;48.780;9.216;2024-01-11T07:53:12;-2.60;99.90
1704;DHT22;849;48.780;9.216;2024-01-11T07:55:57;-2.60;99.90
1704;DHT22;849;48.780;9.216;2024-01-11T07:58:41;-2.50;99.90
1704;DHT22;849;48.780;9.216;2024-01-11T08:01:25;-2.60;99.90
1704;DHT22;849;48.780;9.216;2024-01-11T08:04:09;-2.50;99.90
1704;DHT22;849;48.780;9.216;2024-01-11T08:06:54;-2.50;99.90
1704;DHT22;849;48.780;9.216;2024-01-11T08:09:38;-2.50;99.90
1704;DHT22;849;48.780;9.216;2024-01-11T08:12:28;-2.50;99.90
1704;DHT22;849;48.780;9.216;2024-01-11T08:15:13;-2.40;99.90
1704;DHT22;849;48.780;9.216;2024-01-11T08:17:57;-2.30;99.90
1704;DHT22;849;48.780;9.216;2024-01-11T08:20:42;-2.40;99.90
1704;DHT22;849;48.780;9.216;2024-01-11T08:23:26;-2.40;99.90
1704;DHT22;849;48.780;9.216;2024-01-11T08:26:13;-2.40;99.90
1704;DHT22;849;48.780;9.216;2024-01-11T08:28:58;-2.50;99.90
1704;DHT22;849;48.780;9.216;2024-01-11T08:31:42;-2.40;99.90
1704;DHT22;849;48.780;9.216;2024-01-11T08:34:27;-2.40;99.90
1704;DHT22;849;48.780;9.216;2024-01-11T08:37:12;-2.40;99.90
1704;DHT22;849;48.780;9.216;2024-01-11T08:39:56;-1.90;99.90
1704;DHT22;849;48.780;9.216;2024-01-11T08:42:40;-2.30;99.90
1704;DHT22;849;48.780;9.216;2024-01-11T08:45:25;-1.70;99.90
1704;DHT22;849;48.780;9.216;2024-01-11T08:48:09;-2.20;99.90
1704;DHT22;849;48.780;9.216;2024-01-11T08:50:53;-1.90;99.90
1704;DHT22;849;48.780;9.216;2024-01-11T08:53:38;-2.10;99.90
1704;DHT22;849;48.780;9.216;2024-01-11T08:56:22;-2.10;99.90
1704;DHT22;849;48.780;9.216;2024-01-11T08:59:06;-2.10;99.90
1704;DHT22;849;48.780;9.216;2024-01-11T09:01:52;-2.10;99.90
1704;DHT22;849;48.780;9.216;2024-01-11T09:04:36;-2.00;99.90
1704;DHT22;849;48.780;9.216;2024-01-11T09:07:21;-2.00;99.90
1704;DHT22;849;48.780;9.216;2024-01-11T09:10:05;-2.00;99.90
1704;DHT22;849;48.780;9.216;2024-01-11T09:12:49;-2.00;99.90
1704;DHT22;849;48.780;9.216;2024-01-11T09:15:34;-1.90;99.90
1704;DHT22;849;48.780;9.216;2024-01-11T09:18:18;-1.90;99.90
1704;DHT22;849;48.780;9.216;2024-01-11T09:21:02;-1.90;99.90
1704;DHT22;849;48.780;9.216;2024-01-11T09:23:47;-1.90;99.90
1704;DHT22;849;48.780;9.216;2024-01-11T09:26:31;-1.80;99.90
1704;DHT22;849;48.780;9.216;2024-01-11T09:29:16;-1.80;99.90
1704;DHT22;849;48.780;9.216;2024-01-11T09:32:00;-1.70;99.90
1704;DHT22;849;48.780;9.216;2024-01-11T09:34:45;-1.70;99.90
1704;DHT22;849;48.780;9.216;2024-01-11T09:37:29;-1.70;99.90
1704;DHT22;849;48.780;9.216;2024-01-11T09:40:14;-1.80;99.90
1704;DHT22;849;48.780;9.216;2024-01-11T09:42:59;-1.70;99.90
1704;DHT22;849;48.780;9.216;2024-01-11T09:45:44;-1.70;99.90
1704;DHT22;849;48.780;9.216;2024-01-11T09:48:28;-1.60;99.90
1704;DHT22;849;48.780;9.216;2024-01-11T09:51:13;-1.70;99.90
1704;DHT22;849;48.780;9.216;2024-01-11T09:53:57;-1.60;99.90
1704;DHT22;849;48.780;9.216;2024-01-11T09:56:43;-1.60;99.90
1704;DHT22;849;48.780;9.216;2024-01-11T09:59:27;-1.60;99.90
1704;DHT22;849;48.780;9.216;2024-01-11T10:02:11;-1.30;99.90
1704;DHT22;849;48.780;9.216;2024-01-11T10:04:56;-1.40;99.90
1704;DHT22;849;48.780;9.216;2024-01-11T10:07:40;-1.40;99.90
1704;DHT22;849;48.780;9.216;2024-01-11T10:10:27;-1.40;99.90
1704;DHT22;849;48.780;9.216;2024-01-11T10:13:12;-1.00;99.90
1704;DHT22;849;48.780;9.216;2024-01-11T10:16:04;-1.30;99.90
1704;DHT22;849;48.780;9.216;2024-01-11T10:18:49;-1.20;99.90
1704;DHT22;849;48.780;9.216;2024-01-11T10:21:37;-1.10;99.90
1704;DHT22;849;48.780;9.216;2024-01-11T10:24:22;-1.10;99.90
1704;DHT22;849;48.780;9.216;2024-01-11T10:27:09;-1.00;99.90
1704;DHT22;849;48.780;9.216;2024-01-11T10:29:53;-0.90;99.90
1704;DHT22;849;48.780;9.216;2024-01-11T10:32:39;-0.90;99.90
1704;DHT22;849;48.780;9.216;2024-01-11T10:35:23;-0.80;99.90
1704;DHT22;849;48.780;9.216;2024-01-11T10:38:09;-0.80;99.90
1704;DHT22;849;48.780;9.216;2024-01-11T10:40:54;-0.70;99.90
1704;DHT22;849;48.780;9.216;2024-01-11T10:43:39;-0.70;99.90
1704;DHT22;849;48.780;9.216;2024-01-11T10:46:24;-0.70;99.90
1704;DHT22;849;48.780;9.216;2024-01-11T10:49:09;-0.70;99.90
1704;DHT22;849;48.780;9.216;2024-01-11T10:52:13;-0.60;99.90
1704;DHT22;849;48.780;9.216;2024-01-11T10:54:58;-0.60;99.90
1704;DHT22;849;48.780;9.216;2024-01-11T10:57:44;-0.50;99.90
1704;DHT22;849;48.780;9.216;2024-01-11T11:00:29;-0.50;99.90
1704;DHT22;849;48.780;9.216;2024-01-11T11:03:14;-0.50;99.90
1704;DHT22;849;48.780;9.216;2024-01-11T11:05:58;-0.60;99.90
1704;DHT22;849;48.780;9.216;2024-01-11T11:08:44;-0.50;99.90
1704;DHT22;849;48.780;9.216;2024-01-11T11:11:30;-0.50;99.90
1704;DHT22;849;48.780;9.216;2024-01-11T11:14:15;-0.50;99.90
1704;DHT22;849;48.780;9.216;2024-01-11T11:16:59;-0.40;99.90
1704;DHT22;849;48.780;9.216;2024-01-11T11:19:43;-0.40;99.90
1704;DHT22;849;48.780;9.216;2024-01-11T11:22:27;-0.40;99.90
1704;DHT22;849;48.780;9.216;2024-01-11T11:25:23;-0.30;99.90
1704;DHT22;849;48.780;9.216;2024-01-11T11:28:08;-0.20;99.90
1704;DHT22;849;48.780;9.216;2024-01-11T11:30:55;-0.10;99.90
1704;DHT22;849;48.780;9.216;2024-01-11T11:33:41;-0.10;99.90
1704;DHT22;849;48.780;9.216;2024-01-11T11:36:28;0.00;99.90
1704;DHT22;849;48.780;9.216;2024-01-11T11:39:13;0.00;99.90
1704;DHT22;849;48.780;9.216;2024-01-11T11:41:58;0.10;99.90
1704;DHT22;849;48.780;9.216;2024-01-11T11:44:48;0.10;99.90
1704;DHT22;849;48.780;9.216;2024-01-11T11:47:33;0.20;99.90
1704;DHT22;849;48.780;9.216;2024-01-11T11:50:21;0.30;99.90
1704;DHT22;849;48.780;9.216;2024-01-11T11:53:05;0.30;99.90
1704;DHT22;849;48.780;9.216;2024-01-11T11:55:49;0.40;99.90
1704;DHT22;849;48.780;9.216;2024-01-11T11:58:34;0.40;99.90
1704;DHT22;849;48.780;9.216;2024-01-11T12:01:18;0.40;99.90
1704;DHT22;849;48.780;9.216;2024-01-11T12:04:02;0.50;99.90
1704;DHT22;849;48.780;9.216;2024-01-11T12:06:46;0.60;99.90
1704;DHT22;849;48.780;9.216;2024-01-11T12:09:31;0.70;99.90
1704;DHT22;849;48.780;9.216;2024-01-11T12:12:15;0.70;99.90
1704;DHT22;849;48.780;9.216;2024-01-11T12:15:03;0.70;99.90
1704;DHT22;849;48.780;9.216;2024-01-11T12:17:47;0.80;99.90
1704;DHT22;849;48.780;9.216;2024-01-11T12:20:32;0.80;99.90
1704;DHT22;849;48.780;9.216;2024-01-11T12:23:16;0.80;99.90
1704;DHT22;849;48.780;9.216;2024-01-11T12:26:03;0.80;99.90
1704;DHT22;849;48.780;9.216;2024-01-11T12:28:51;0.80;99.90
1704;DHT22;849;48.780;9.216;2024-01-11T12:31:36;0.80;99.90
1704;DHT22;849;48.780;9.216;2024-01-11T12:34:20;0.90;99.90
1704;DHT22;849;48.780;9.216;2024-01-11T12:37:05;0.90;99.90
1704;DHT22;849;48.780;9.216;2024-01-11T12:39:49;0.90;99.90
1704;DHT22;849;48.780;9.216;2024-01-11T12:42:34;1.00;99.90
1704;DHT22;849;48.780;9.216;2024-01-11T12:45:19;0.90;99.90
1704;DHT22;849;48.780;9.216;2024-01-11T12:48:03;1.00;99.90
1704;DHT22;849;48.780;9.216;2024-01-11T12:50:51;0.80;99.90
1704;DHT22;849;48.780;9.216;2024-01-11T12:53:35;0.90;99.90
1704;DHT22;849;48.780;9.216;2024-01-11T12:56:19;0.90;99.90
1704;DHT22;849;48.780;9.216;2024-01-11T12:59:06;0.90;99.90
1704;DHT22;849;48.780;9.216;2024-01-11T13:01:50;0.90;99.90
1704;DHT22;849;48.780;9.216;2024-01-11T13:04:34;0.90;99.90
1704;DHT22;849;48.780;9.216;2024-01-11T13:07:19;1.00;99.90
1704;DHT22;849;48.780;9.216;2024-01-11T13:10:06;1.10;99.90
1704;DHT22;849;48.780;9.216;2024-01-11T13:12:51;1.10;99.90
1704;DHT22;849;48.780;9.216;2024-01-11T13:15:35;1.20;99.90
1704;DHT22;849;48.780;9.216;2024-01-11T13:18:20;1.10;99.90
1704;DHT22;849;48.780;9.216;2024-01-11T13:21:04;1.20;99.90
1704;DHT22;849;48.780;9.216;2024-01-11T13:23:50;1.20;99.90
1704;DHT22;849;48.780;9.216;2024-01-11T13:26:35;1.30;99.90
1704;DHT22;849;48.780;9.216;2024-01-11T13:29:20;1.30;99.90
1704;DHT22;849;48.780;9.216;2024-01-11T13:32:04;1.30;99.90
1704;DHT22;849;48.780;9.216;2024-01-11T13:34:49;1.30;99.90
1704;DHT22;849;48.780;9.216;2024-01-11T13:37:35;1.30;99.90
1704;DHT22;849;48.780;9.216;2024-01-11T13:40:19;1.30;99.90
1704;DHT22;849;48.780;9.216;2024-01-11T13:43:04;1.40;99.90
1704;DHT22;849;48.780;9.216;2024-01-11T13:45:48;1.30;99.90
1704;DHT22;849;48.780;9.216;2024-01-11T13:48:32;1.30;99.90
1704;DHT22;849;48.780;9.216;2024-01-11T13:51:16;1.40;99.90
1704;DHT22;849;48.780;9.216;2024-01-11T13:54:01;1.40;99.90
1704;DHT22;849;48.780;9.216;2024-01-11T13:56:45;1.40;99.90
1704;DHT22;849;48.780;9.216;2024-01-11T13:59:30;1.40;99.90
1704;DHT22;849;48.780;9.216;2024-01-11T14:02:14;1.30;99.90
1704;DHT22;849;48.780;9.216;2024-01-11T14:04:58;1.60;99.90
1704;DHT22;849;48.780;9.216;2024-01-11T14:07:43;1.50;99.90
1704;DHT22;849;48.780;9.216;2024-01-11T14:10:28;1.60;99.90
1704;DHT22;849;48.780;9.216;2024-01-11T14:13:13;1.50;99.90
1704;DHT22;849;48.780;9.216;2024-01-11T14:15:57;1.70;99.90
1704;DHT22;849;48.780;9.216;2024-01-11T14:18:41;1.50;99.90
1704;DHT22;849;48.780;9.216;2024-01-11T14:21:25;1.50;99.90
1704;DHT22;849;48.780;9.216;2024-01-11T14:24:10;1.50;99.90
1704;DHT22;849;48.780;9.216;2024-01-11T14:26:54;1.40;99.90
1704;DHT22;849;48.780;9.216;2024-01-11T14:29:38;1.40;99.90
1704;DHT22;849;48.780;9.216;2024-01-11T14:32:24;1.40;99.90
1704;DHT22;849;48.780;9.216;2024-01-11T14:35:10;1.50;99.90
1704;DHT22;849;48.780;9.216;2024-01-11T14:37:54;1.50;99.90
1704;DHT22;849;48.780;9.216;2024-01-11T14:40:39;1.50;99.90
1704;DHT22;849;48.780;9.216;2024-01-11T14:43:23;1.60;99.90
1704;DHT22;849;48.780;9.216;2024-01-11T14:46:07;1.50;99.90
1704;DHT22;849;48.780;9.216;2024-01-11T14:48:54;1.50;99.90
1704;DHT22;849;48.780;9.216;2024-01-11T14:51:38;1.30;99.90
1704;DHT22;849;48.780;9.216;2024-01-11T14:54:23;1.30;99.90
1704;DHT22;849;48.780;9.216;2024-01-11T14:57:08;1.30;99.90
1704;DHT22;849;48.780;9.216;2024-01-11T14:59:52;1.20;99.90
1704;DHT22;849;48.780;9.216;2024-01-11T15:02:36;1.20;99.90
1704;DHT22;849;48.780;9.216;2024-01-11T15:05:20;1.20;99.90
1704;DHT22;849;48.780;9.216;2024-01-11T15:08:05;1.10;99.90
1704;DHT22;849;48.780;9.216;2024-01-11T15:10:49;1.10;99.90
1704;DHT22;849;48.780;9.216;2024-01-11T15:13:33;1.10;99.90
1704;DHT22;849;48.780;9.216;2024-01-11T15:16:18;1.10;99.90
1704;DHT22;849;48.780;9.216;2024-01-11T15:19:03;1.00;99.90
1704;DHT22;849;48.780;9.216;2024-01-11T15:21:47;1.00;99.90
1704;DHT22;849;48.780;9.216;2024-01-11T15:24:31;0.90;99.90
1704;DHT22;849;48.780;9.216;2024-01-11T15:27:16;0.90;99.90
1704;DHT22;849;48.780;9.216;2024-01-11T15:30:01;0.90;99.90
1704;DHT22;849;48.780;9.216;2024-01-11T15:32:45;0.80;99.90
1704;DHT22;849;48.780;9.216;2024-01-11T15:35:29;0.80;99.90
1704;DHT22;849;48.780;9.216;2024-01-11T15:38:13;0.80;99.90
1704;DHT22;849;48.780;9.216;2024-01-11T15:40:58;0.70;99.90
1704;DHT22;849;48.780;9.216;2024-01-11T15:43:42;0.70;99.90
1704;DHT22;849;48.780;9.216;2024-01-11T15:46:27;0.70;99.90
1704;DHT22;849;48.780;9.216;2024-01-11T15:49:11;0.70;99.90
1704;DHT22;849;48.780;9.216;2024-01-11T15:51:55;0.60;99.90
1704;DHT22;849;48.780;9.216;2024-01-11T15:54:40;0.60;99.90
1704;DHT22;849;48.780;9.216;2024-01-11T15:57:24;0.60;99.90
1704;DHT22;849;48.780;9.216;2024-01-11T16:00:09;0.50;99.90
1704;DHT22;849;48.780;9.216;2024-01-11T16:02:54;0.40;99.90
1704;DHT22;849;48.780;9.216;2024-01-11T16:05:39;0.30;99.90
1704;DHT22;849;48.780;9.216;2024-01-11T16:08:23;0.30;99.90
1704;DHT22;849;48.780;9.216;2024-01-11T16:11:08;0.20;99.90
1704;DHT22;849;48.780;9.216;2024-01-11T16:13:53;0.20;99.90
1704;DHT22;849;48.780;9.216;2024-01-11T16:16:37;0.10;99.90
1704;DHT22;849;48.780;9.216;2024-01-11T16:19:21;0.10;99.90
1704;DHT22;849;48.780;9.216;2024-01-11T16:22:05;0.00;99.90
1704;DHT22;849;48.780;9.216;2024-01-11T16:24:50;0.00;99.90
1704;DHT22;849;48.780;9.216;2024-01-11T16:27:34;0.00;99.90
1704;DHT22;849;48.780;9.216;2024-01-11T16:30:18;-0.10;99.90
1704;DHT22;849;48.780;9.216;2024-01-11T16:33:03;-0.10;99.90
1704;DHT22;849;48.780;9.216;2024-01-11T16:35:47;-0.10;99.90
1704;DHT22;849;48.780;9.216;2024-01-11T16:38:32;-0.20;99.90
1704;DHT22;849;48.780;9.216;2024-01-11T16:41:16;-0.20;99.90
1704;DHT22;849;48.780;9.216;2024-01-11T16:44:00;-0.20;99.90
1704;DHT22;849;48.780;9.216;2024-01-11T16:46:45;-0.10;99.90
1704;DHT22;849;48.780;9.216;2024-01-11T16:49:29;-0.10;99.90
1704;DHT22;849;48.780;9.216;2024-01-11T16:52:13;-0.10;99.90
1704;DHT22;849;48.780;9.216;2024-01-11T16:54:57;-0.10;99.90
1704;DHT22;849;48.780;9.216;2024-01-11T16:57:42;0.00;99.90
1704;DHT22;849;48.780;9.216;2024-01-11T17:00:26;0.00;99.90
1704;DHT22;849;48.780;9.216;2024-01-11T17:03:10;0.00;99.90
1704;DHT22;849;48.780;9.216;2024-01-11T17:05:55;0.00;99.90
1704;DHT22;849;48.780;9.216;2024-01-11T17:08:39;-0.10;99.90
1704;DHT22;849;48.780;9.216;2024-01-11T17:11:23;-0.70;99.90
1704;DHT22;849;48.780;9.216;2024-01-11T17:14:07;-0.10;99.90
1704;DHT22;849;48.780;9.216;2024-01-11T17:16:51;-0.10;99.90
1704;DHT22;849;48.780;9.216;2024-01-11T17:19:36;-0.10;99.90
1704;DHT22;849;48.780;9.216;2024-01-11T17:22:20;-0.10;99.90
1704;DHT22;849;48.780;9.216;2024-01-11T17:25:04;-0.10;99.90
1704;DHT22;849;48.780;9.216;2024-01-11T17:27:49;-0.20;99.90
1704;DHT22;849;48.780;9.216;2024-01-11T17:30:33;-0.20;99.90
1704;DHT22;849;48.780;9.216;2024-01-11T17:33:17;-0.20;99.90
1704;DHT22;849;48.780;9.216;2024-01-11T17:36:01;-0.20;99.90
1704;DHT22;849;48.780;9.216;2024-01-11T17:38:45;-0.20;99.90
1704;DHT22;849;48.780;9.216;2024-01-11T17:41:30;0.30;99.90
1704;DHT22;849;48.780;9.216;2024-01-11T17:44:14;-0.20;99.90
1704;DHT22;849;48.780;9.216;2024-01-11T17:46:58;-0.20;99.90
1704;DHT22;849;48.780;9.216;2024-01-11T17:49:42;-0.20;99.90
1704;DHT22;849;48.780;9.216;2024-01-11T17:52:26;-0.20;99.90
1704;DHT22;849;48.780;9.216;2024-01-11T17:55:13;-0.30;99.90
1704;DHT22;849;48.780;9.216;2024-01-11T17:57:57;-0.30;99.90
1704;DHT22;849;48.780;9.216;2024-01-11T18:00:41;-0.30;99.90
1704;DHT22;849;48.780;9.216;2024-01-11T18:03:25;-0.20;99.90
1704;DHT22;849;48.780;9.216;2024-01-11T18:06:10;-0.20;99.90
1704;DHT22;849;48.780;9.216;2024-01-11T18:08:54;-0.20;99.90
1704;DHT22;849;48.780;9.216;2024-01-11T18:11:38;-0.20;99.90
1704;DHT22;849;48.780;9.216;2024-01-11T18:14:22;-0.30;99.90
1704;DHT22;849;48.780;9.216;2024-01-11T18:17:06;0.00;99.90